createdAt,value
2023-03-06T00:02:24.285Z,100938.44
2023-03-06T00:04:50.801Z,100924.53
2023-03-06T00:07:17.276Z,100924.53
2023-03-06T00:09:43.767Z,100929.03
2023-03-06T00:12:10.440Z,100924.53
2023-03-06T00:14:36.935Z,100919.28
2023-03-06T00:17:03.993Z,100920.78
2023-03-06T00:19:30.465Z,100917.78
2023-03-06T00:21:57.113Z,100917.78
2023-03-06T00:24:23.662Z,100919.28
2023-03-06T00:26:50.798Z,100905.41
2023-03-06T00:29:17.311Z,100905.78
2023-03-06T00:31:47.762Z,100901.28
2023-03-06T00:34:15.030Z,100896.78
2023-03-06T00:36:41.913Z,100896.41
2023-03-06T00:39:09.534Z,100894.19
2023-03-06T00:41:36.126Z,100890.03
2023-03-06T00:44:02.554Z,100886.28
2023-03-06T00:46:29.042Z,100872.78
2023-03-06T00:48:55.728Z,100867.53
2023-03-06T00:51:22.232Z,100871.28
2023-03-06T00:53:48.850Z,100865.28
2023-03-06T00:56:19.891Z,100860.03
2023-03-06T00:58:47.545Z,100860.03
2023-03-06T01:01:14.086Z,100858.16
2023-03-06T01:03:40.695Z,100854.03
2023-03-06T01:06:07.405Z,100852.53
2023-03-06T01:08:35.248Z,100850.66
2023-03-06T01:11:01.778Z,100844.66
2023-03-06T01:13:28.296Z,100837.16
2023-03-06T01:15:54.811Z,100846.91
2023-03-06T01:18:21.397Z,100834.91
2023-03-06T01:20:48.650Z,100839.41
2023-03-06T01:23:17.973Z,100828.16
2023-03-06T01:25:44.441Z,100830.78
2023-03-06T01:28:10.965Z,100832.28
2023-03-06T01:30:37.563Z,100822.16
2023-03-06T01:33:04.062Z,100835.28
2023-03-06T01:35:30.538Z,100831.91
2023-03-06T01:37:57.012Z,100834.50
2023-03-06T01:40:23.537Z,100827.41
2023-03-06T01:42:50.606Z,100836.03
2023-03-06T01:45:16.995Z,100832.28
2023-03-06T01:47:44.776Z,100830.03
2023-03-06T01:50:12.580Z,100828.91
2023-03-06T01:53:00.424Z,100828.13
2023-03-06T01:55:32.849Z,100826.25
2023-03-06T01:58:03.430Z,100815.75
2023-03-06T02:00:30.410Z,100816.50
2023-03-06T02:03:04.632Z,100814.63
2023-03-06T02:05:31.179Z,100813.13
2023-03-06T02:07:58.197Z,100803.00
2023-03-06T02:10:25.051Z,100798.88
2023-03-06T02:12:52.291Z,100791.78
2023-03-06T02:15:22.880Z,100790.25
2023-03-06T02:17:51.225Z,100793.25
2023-03-06T02:20:28.850Z,100798.50
2023-03-06T02:23:10.293Z,100794.38
2023-03-06T02:25:45.947Z,100794.72
2023-03-06T02:28:15.391Z,100792.84
2023-03-06T02:30:43.642Z,100789.84
2023-03-06T02:33:17.354Z,100783.09
2023-03-06T02:35:49.634Z,100787.97
2023-03-06T02:38:19.961Z,100780.84
2023-03-06T02:40:49.709Z,100773.38
2023-03-06T02:43:22.849Z,100778.63
2023-03-06T02:45:51.211Z,100775.25
2023-03-06T02:48:19.122Z,100765.53
2023-03-06T02:50:46.336Z,100758.03
2023-03-06T02:53:14.845Z,100764.78
2023-03-06T02:55:41.347Z,100757.31
2023-03-06T02:58:08.379Z,100749.44
2023-03-06T03:00:35.296Z,100744.97
2023-03-06T03:03:05.855Z,100740.47
2023-03-06T03:05:32.880Z,100740.47
2023-03-06T03:08:07.102Z,100728.09
2023-03-06T03:10:34.161Z,100734.47
2023-03-06T03:13:00.638Z,100729.97
2023-03-06T03:15:27.357Z,100728.09
2023-03-06T03:17:54.191Z,100720.63
2023-03-06T03:20:22.524Z,100721.38
2023-03-06T03:22:54.927Z,100722.88
2023-03-06T03:25:23.643Z,100710.53
2023-03-06T03:27:51.411Z,100713.13
2023-03-06T03:30:18.347Z,100704.16
2023-03-06T03:32:45.213Z,100704.53
2023-03-06T03:35:12.354Z,100700.03
2023-03-06T03:37:39.916Z,100702.28
2023-03-06T03:40:07.802Z,100700.41
2023-03-06T03:42:34.563Z,100701.16
2023-03-06T03:45:01.323Z,100692.94
2023-03-06T03:47:28.429Z,100692.94
2023-03-06T03:49:54.916Z,100688.06
2023-03-06T03:52:21.612Z,100687.69
2023-03-06T03:54:48.168Z,100686.56
2023-03-06T03:57:14.625Z,100674.59
2023-03-06T03:59:46.322Z,100681.69
2023-03-06T04:02:23.804Z,100691.81
2023-03-06T04:04:59.641Z,100677.56
2023-03-06T04:07:26.623Z,100673.84
2023-03-06T04:09:53.906Z,100679.44
2023-03-06T04:12:20.509Z,100678.31
2023-03-06T04:14:47.475Z,100673.47
2023-03-06T04:17:14.074Z,100665.59
2023-03-06T04:19:40.637Z,100667.09
2023-03-06T04:22:07.094Z,100665.59
2023-03-06T04:24:36.505Z,100658.84
2023-03-06T04:27:03.155Z,100656.97
2023-03-06T04:29:30.698Z,100660.34
2023-03-06T04:31:57.248Z,100663.72
2023-03-06T04:34:24.445Z,100654.72
2023-03-06T04:36:50.989Z,100649.47
2023-03-06T04:39:18.097Z,100653.22
2023-03-06T04:41:44.629Z,100650.94
2023-03-06T04:44:11.439Z,100645.69
2023-03-06T04:46:39.010Z,100646.44
2023-03-06T04:49:05.697Z,100636.72
2023-03-06T04:51:32.197Z,100641.59
2023-03-06T04:53:58.736Z,100641.19
2023-03-06T04:56:25.152Z,100642.69
2023-03-06T04:58:51.733Z,100631.09
2023-03-06T05:01:18.539Z,100637.81
2023-03-06T05:03:45.132Z,100637.06
2023-03-06T05:06:11.648Z,100631.44
2023-03-06T05:08:38.171Z,100633.31
2023-03-06T05:11:04.850Z,100637.81
2023-03-06T05:13:31.347Z,100638.94
2023-03-06T05:16:05.475Z,100637.44
2023-03-06T05:18:33.635Z,100632.91
2023-03-06T05:21:00.917Z,100632.53
2023-03-06T05:23:31.527Z,100640.78
2023-03-06T05:25:58.089Z,100638.53
2023-03-06T05:28:25.910Z,100640.03
2023-03-06T05:30:52.418Z,100633.66
2023-03-06T05:33:18.870Z,100626.53
2023-03-06T05:35:47.234Z,100629.16
2023-03-06T05:38:15.579Z,100623.16
2023-03-06T05:40:43.980Z,100617.91
2023-03-06T05:43:11.916Z,100616.03
2023-03-06T05:45:39.103Z,100618.28
2023-03-06T05:48:06.087Z,100617.53
2023-03-06T05:50:33.092Z,100608.16
2023-03-06T05:52:59.701Z,100611.16
2023-03-06T05:55:26.139Z,100609.66
2023-03-06T05:57:53.337Z,100613.41
2023-03-06T06:00:20.488Z,100617.16
2023-03-06T06:02:47.392Z,100610.81
2023-03-06T06:05:14.565Z,100611.19
2023-03-06T06:07:41.662Z,100611.19
2023-03-06T06:10:09.499Z,100618.31
2023-03-06T06:12:36.011Z,100628.81
2023-03-06T06:15:02.565Z,100629.19
2023-03-06T06:17:29.088Z,100640.03
2023-03-06T06:19:55.562Z,100630.31
2023-03-06T06:22:21.990Z,100637.41
2023-03-06T06:24:48.481Z,100640.41
2023-03-06T06:27:15.072Z,100643.41
2023-03-06T06:29:41.630Z,100636.28
2023-03-06T06:32:08.136Z,100643.00
2023-03-06T06:34:34.790Z,100631.72
2023-03-06T06:37:01.209Z,100644.84
2023-03-06T06:39:28.723Z,100635.84
2023-03-06T06:42:09.983Z,100636.97
2023-03-06T06:44:42.138Z,100633.56
2023-03-06T06:47:22.310Z,100635.06
2023-03-06T06:49:52.643Z,100640.28
2023-03-06T06:52:19.536Z,100632.78
2023-03-06T06:54:46.184Z,100628.25
2023-03-06T06:57:12.715Z,100636.88
2023-03-06T06:59:39.319Z,100635.75
2023-03-06T07:02:05.956Z,100628.22
2023-03-06T07:04:32.621Z,100640.19
2023-03-06T07:06:59.769Z,100643.94
2023-03-06T07:09:26.425Z,100639.41
2023-03-06T07:11:52.935Z,100639.38
2023-03-06T07:14:19.460Z,100641.25
2023-03-06T07:16:45.987Z,100645.34
2023-03-06T07:19:12.585Z,100654.72
2023-03-06T07:21:39.092Z,100647.19
2023-03-06T07:24:05.830Z,100649.03
2023-03-06T07:26:34.608Z,100656.09
2023-03-06T07:29:02.173Z,100657.56
2023-03-06T07:31:29.047Z,100654.13
2023-03-06T07:33:55.824Z,100654.50
2023-03-06T07:36:23.786Z,100660.09
2023-03-06T07:38:50.479Z,100655.53
2023-03-06T07:41:19.801Z,100659.56
2023-03-06T07:43:48.463Z,100659.50
2023-03-06T07:46:15.020Z,100653.44
2023-03-06T07:48:42.076Z,100654.13
2023-03-06T07:51:14.212Z,100664.16
2023-03-06T07:53:41.260Z,100650.56
2023-03-06T07:56:09.088Z,100652.72
2023-03-06T07:58:37.989Z,100657.97
2023-03-06T08:01:05.587Z,100663.19
2023-03-06T08:03:32.443Z,100658.56
2023-03-06T08:06:12.735Z,100660.66
2023-03-06T08:08:40.701Z,100659.81
2023-03-06T08:11:08.815Z,100658.25
2023-03-06T08:13:35.810Z,100660.44
2023-03-06T08:16:02.909Z,100664.56
2023-03-06T08:18:29.486Z,100667.25
2023-03-06T08:21:16.877Z,100663.81
2023-03-06T08:23:44.510Z,100664.16
2023-03-06T08:26:13.250Z,100661.81
2023-03-06T08:28:39.974Z,100659.03
2023-03-06T08:31:30.671Z,100661.25
2023-03-06T08:33:59.562Z,100658.97
2023-03-06T08:36:26.259Z,100657.09
2023-03-06T08:38:53.085Z,100663.41
2023-03-06T08:41:20.451Z,100664.81
2023-03-06T08:43:47.781Z,100664.72
2023-03-06T08:46:14.481Z,100659.28
2023-03-06T08:48:41.453Z,100655.84
2023-03-06T08:51:11.135Z,100664.28
2023-03-06T08:53:43.604Z,100664.53
2023-03-06T08:56:17.254Z,100662.59
2023-03-06T08:58:44.135Z,100664.31
2023-03-06T09:01:19.114Z,100660.69
2023-03-06T09:03:45.739Z,100661.66
2023-03-06T09:06:13.455Z,100660.88
2023-03-06T09:08:43.177Z,100666.03
2023-03-06T09:11:11.413Z,100665.19
2023-03-06T09:13:37.938Z,100660.13
2023-03-06T09:16:04.730Z,100665.28
2023-03-06T09:18:31.257Z,100660.84
2023-03-06T09:20:57.757Z,100656.91
2023-03-06T09:23:24.225Z,100662.19
2023-03-06T09:25:55.788Z,100667.00
2023-03-06T09:28:22.723Z,100659.88
2023-03-06T09:30:49.306Z,100660.09
2023-03-06T09:33:16.443Z,100659.47
2023-03-06T09:35:54.363Z,100663.56
2023-03-06T09:38:24.096Z,100653.94
2023-03-06T09:41:02.510Z,100659.47
2023-03-06T09:43:35.998Z,100653.34
2023-03-06T09:46:36.514Z,100653.66
2023-03-06T09:49:15.104Z,100657.22
2023-03-06T09:52:06.733Z,100655.31
2023-03-06T09:54:44.807Z,100656.97
2023-03-06T09:57:25.910Z,100658.88
2023-03-06T09:59:55.530Z,100655.03
2023-03-06T10:02:25.106Z,100662.09
2023-03-06T10:05:01.107Z,100662.84
2023-03-06T10:07:41.053Z,100665.53
2023-03-06T10:10:24.046Z,100670.94
2023-03-06T10:13:03.583Z,100667.94
2023-03-06T10:15:34.618Z,100664.22
2023-03-06T10:18:02.116Z,100659.19
2023-03-06T10:20:36.437Z,100663.31
2023-03-06T10:23:14.434Z,100661.75
2023-03-06T10:25:50.245Z,100656.63
2023-03-06T10:28:20.928Z,100650.28
2023-03-06T10:31:01.370Z,100649.84
2023-03-06T10:33:49.646Z,100653.97
2023-03-06T10:36:18.990Z,100653.88
2023-03-06T10:38:48.498Z,100649.66
2023-03-06T10:41:35.577Z,100650.66
2023-03-06T10:44:04.755Z,100647.59
2023-03-06T10:46:37.573Z,100648.00
2023-03-06T10:49:09.402Z,100647.66
2023-03-06T10:51:35.937Z,100639.44
2023-03-06T10:54:14.390Z,100640.69
2023-03-06T10:56:46.344Z,100638.72
2023-03-06T10:59:18.581Z,100635.94
2023-03-06T11:01:46.910Z,100630.22
2023-03-06T11:04:30.212Z,100634.09
2023-03-06T11:07:16.373Z,100636.56
2023-03-06T11:09:47.681Z,100623.72
2023-03-06T11:12:32.338Z,100629.16
2023-03-06T11:15:17.652Z,100621.34
2023-03-06T11:17:53.005Z,100621.03
2023-03-06T11:20:21.133Z,100622.09
2023-03-06T11:22:59.616Z,100617.63
2023-03-06T11:25:42.612Z,100616.06
2023-03-06T11:28:29.580Z,100620.19
2023-03-06T11:31:08.523Z,100609.13
2023-03-06T11:33:46.753Z,100607.97
2023-03-06T11:36:44.486Z,100601.41
2023-03-06T11:39:38.770Z,100597.63
2023-03-06T11:42:21.633Z,100596.69
2023-03-06T11:45:02.517Z,100594.88
2023-03-06T11:47:36.371Z,100581.59
2023-03-06T11:50:25.458Z,100580.16
2023-03-06T11:53:01.567Z,100593.28
2023-03-06T11:55:45.286Z,100588.72
2023-03-06T11:58:49.059Z,100589.34
2023-03-06T12:01:52.897Z,100585.75
2023-03-06T12:04:41.245Z,100587.44
2023-03-06T12:07:27.583Z,100578.00
2023-03-06T12:10:02.633Z,100575.66
2023-03-06T12:12:44.417Z,100582.38
2023-03-06T12:15:35.187Z,100572.72
2023-03-06T12:18:19.437Z,100572.28
2023-03-06T12:20:48.644Z,100566.88
2023-03-06T12:23:30.335Z,100574.84
2023-03-06T12:26:30.852Z,100565.19
2023-03-06T12:29:23.086Z,100566.34
2023-03-06T12:32:08.391Z,100563.06
2023-03-06T12:35:06.677Z,100560.59
2023-03-06T12:37:39.524Z,100558.16
2023-03-06T12:40:12.196Z,100548.84
2023-03-06T12:43:05.001Z,100549.25
2023-03-06T12:45:37.049Z,100549.44
2023-03-06T12:48:11.024Z,100543.19
2023-03-06T12:50:38.857Z,100544.06
2023-03-06T12:53:15.224Z,100541.03
2023-03-06T12:55:50.540Z,100540.56
2023-03-06T12:58:31.838Z,100531.97
2023-03-06T13:01:14.547Z,100527.72
2023-03-06T13:04:02.461Z,100518.91
2023-03-06T13:06:59.438Z,100518.06
2023-03-06T13:09:25.850Z,100518.59
2023-03-06T13:12:27.038Z,100506.94
2023-03-06T13:14:54.920Z,100513.78
2023-03-06T13:17:24.445Z,100507.38
2023-03-06T13:20:15.477Z,100510.16
2023-03-06T13:22:46.922Z,100497.44
2023-03-06T13:25:19.617Z,100497.44
2023-03-06T13:27:52.730Z,100494.28
2023-03-06T13:30:28.362Z,100487.19
2023-03-06T13:32:56.253Z,100480.84
2023-03-06T13:35:35.765Z,100472.63
2023-03-06T13:38:02.393Z,100472.53
2023-03-06T13:40:34.458Z,100464.91
2023-03-06T13:43:06.974Z,100455.69
2023-03-06T13:45:38.458Z,100455.06
2023-03-06T13:48:30.197Z,100454.50
2023-03-06T13:50:55.435Z,100453.88
2023-03-06T13:53:52.604Z,100453.34
2023-03-06T13:56:54.485Z,100451.88
2023-03-06T14:00:08.980Z,100451.88
2023-03-06T14:03:06.182Z,100447.09
2023-03-06T14:05:50.586Z,100438.41
2023-03-06T14:08:21.706Z,100438.28
2023-03-06T14:10:59.182Z,100436.69
2023-03-06T14:13:35.211Z,100433.63
2023-03-06T14:16:21.572Z,100426.19
2023-03-06T14:18:50.534Z,100429.59
2023-03-06T14:21:30.691Z,100418.06
2023-03-06T14:24:02.873Z,100422.84
2023-03-06T14:26:34.153Z,100416.69
2023-03-06T14:29:03.016Z,100416.38
2023-03-06T14:31:43.158Z,100415.50
2023-03-06T14:34:40.132Z,100404.41
2023-03-06T14:37:19.926Z,100392.78
2023-03-06T14:39:46.870Z,100396.03
2023-03-06T14:42:25.197Z,100387.16
2023-03-06T14:45:02.641Z,100390.44
2023-03-06T14:47:35.505Z,100398.41
2023-03-06T14:50:21.720Z,100395.22
2023-03-06T14:52:50.609Z,100401.19
2023-03-06T14:55:19.695Z,100394.63
2023-03-06T14:57:51.088Z,100389.41
2023-03-06T15:00:23.336Z,100392.16
2023-03-06T15:02:53.057Z,100391.13
2023-03-06T15:05:25.561Z,100388.22
2023-03-06T15:07:54.378Z,100383.06
2023-03-06T15:10:26.966Z,100378.81
2023-03-06T15:12:54.082Z,100360.28
2023-03-06T15:15:30.182Z,100359.00
2023-03-06T15:17:56.701Z,100361.03
2023-03-06T15:20:43.583Z,100360.72
2023-03-06T15:23:19.492Z,100358.19
2023-03-06T15:25:55.231Z,100358.19
2023-03-06T15:28:33.084Z,100351.38
2023-03-06T15:31:25.681Z,100357.84
2023-03-06T15:34:07.489Z,100357.38
2023-03-06T15:36:35.077Z,100353.03
2023-03-06T15:39:01.748Z,100350.38
2023-03-06T15:41:38.996Z,100351.25
2023-03-06T15:44:12.420Z,100345.31
2023-03-06T15:46:39.079Z,100342.44
2023-03-06T15:49:14.329Z,100328.75
2023-03-06T15:51:40.941Z,100343.66
2023-03-06T15:54:12.299Z,100329.13
2023-03-06T15:56:42.667Z,100325.22
2023-03-06T15:59:19.965Z,100321.75
2023-03-06T16:01:46.508Z,100321.28
2023-03-06T16:04:13.708Z,100314.97
2023-03-06T16:06:40.671Z,100314.72
2023-03-06T16:09:07.093Z,100310.75
2023-03-06T16:11:43.321Z,100313.75
2023-03-06T16:14:23.405Z,100309.47
2023-03-06T16:16:51.710Z,100310.50
2023-03-06T16:19:26.259Z,100305.63
2023-03-06T16:21:54.897Z,100307.69
2023-03-06T16:24:21.869Z,100310.81
2023-03-06T16:26:53.331Z,100311.25
2023-03-06T16:29:24.831Z,100311.47
2023-03-06T16:31:51.768Z,100309.59
2023-03-06T16:34:19.792Z,100313.31
2023-03-06T16:36:48.312Z,100294.75
2023-03-06T16:39:19.160Z,100294.31
2023-03-06T16:41:49.378Z,100287.31
2023-03-06T16:44:16.279Z,100287.38
2023-03-06T16:46:45.830Z,100287.53
2023-03-06T16:49:18.708Z,100287.59
2023-03-06T16:51:45.533Z,100274.16
2023-03-06T16:54:12.806Z,100279.38
2023-03-06T16:56:39.302Z,100274.84
2023-03-06T16:59:05.716Z,100275.25
2023-03-06T17:01:32.468Z,100276.31
2023-03-06T17:03:59.375Z,100279.03
2023-03-06T17:06:25.989Z,100270.84
2023-03-06T17:08:52.402Z,100270.19
2023-03-06T17:11:20.376Z,100267.69
2023-03-06T17:13:47.625Z,100260.19
2023-03-06T17:16:18.514Z,100250.09
2023-03-06T17:18:46.268Z,100244.16
2023-03-06T17:21:15.680Z,100248.75
2023-03-06T17:23:42.720Z,100239.75
2023-03-06T17:26:18.716Z,100231.13
2023-03-06T17:28:46.132Z,100235.91
2023-03-06T17:31:21.481Z,100231.44
2023-03-06T17:33:48.796Z,100234.16
2023-03-06T17:36:16.699Z,100226.25
2023-03-06T17:38:43.309Z,100226.25
2023-03-06T17:41:11.386Z,100225.25
2023-03-06T17:43:38.188Z,100219.72
2023-03-06T17:46:10.677Z,100222.81
2023-03-06T17:48:37.783Z,100224.31
2023-03-06T17:51:04.942Z,100217.88
2023-03-06T17:53:31.710Z,100213.09
2023-03-06T17:55:58.362Z,100213.91
2023-03-06T17:58:25.677Z,100208.28
2023-03-06T18:00:52.983Z,100205.75
2023-03-06T18:03:19.614Z,100201.63
2023-03-06T18:05:46.063Z,100202.38
2023-03-06T18:08:12.699Z,100205.09
2023-03-06T18:10:40.427Z,100196.84
2023-03-06T18:13:08.413Z,100212.72
2023-03-06T18:15:38.694Z,100205.16
2023-03-06T18:18:05.379Z,100203.66
2023-03-06T18:20:32.779Z,100200.03
2023-03-06T18:23:03.326Z,100200.81
2023-03-06T18:25:31.740Z,100199.34
2023-03-06T18:27:58.600Z,100197.59
2023-03-06T18:30:25.177Z,100192.03
2023-03-06T18:32:51.734Z,100182.31
2023-03-06T18:35:18.383Z,100184.63
2023-03-06T18:37:44.940Z,100182.81
2023-03-06T18:40:12.625Z,100166.19
2023-03-06T18:42:39.074Z,100169.66
2023-03-06T18:45:06.183Z,100163.72
2023-03-06T18:47:33.655Z,100163.84
2023-03-06T18:50:00.259Z,100158.25
2023-03-06T18:52:26.742Z,100147.72
2023-03-06T18:54:53.501Z,100137.94
2023-03-06T18:57:20.018Z,100142.44
2023-03-06T18:59:46.487Z,100145.94
2023-03-06T19:02:13.126Z,100140.00
2023-03-06T19:04:39.722Z,100139.72
2023-03-06T19:07:06.527Z,100127.38
2023-03-06T19:09:33.260Z,100121.78
2023-03-06T19:12:03.045Z,100114.78
2023-03-06T19:14:29.780Z,100121.13
2023-03-06T19:16:56.516Z,100107.28
2023-03-06T19:19:26.338Z,100104.66
2023-03-06T19:21:53.716Z,100107.28
2023-03-06T19:24:20.158Z,100102.84
2023-03-06T19:26:46.631Z,100098.72
2023-03-06T19:29:13.089Z,100092.38
2023-03-06T19:31:39.580Z,100094.31
2023-03-06T19:34:06.312Z,100084.22
2023-03-06T19:36:34.151Z,100079.34
2023-03-06T19:39:03.538Z,100074.09
2023-03-06T19:41:30.775Z,100075.66
2023-03-06T19:44:02.171Z,100077.59
2023-03-06T19:46:28.717Z,100063.31
2023-03-06T19:48:57.262Z,100058.03
2023-03-06T19:51:24.730Z,100055.41
2023-03-06T19:53:51.334Z,100062.56
2023-03-06T19:56:22.588Z,100048.66
2023-03-06T19:58:49.122Z,100042.66
2023-03-06T20:01:18.131Z,100042.25
2023-03-06T20:03:44.914Z,100033.22
2023-03-06T20:06:17.434Z,100027.97
2023-03-06T20:08:45.061Z,100017.53
2023-03-06T20:11:18.948Z,100018.25
2023-03-06T20:13:47.516Z,100017.84
2023-03-06T20:16:18.485Z,100015.56
2023-03-06T20:18:45.652Z,100003.16
2023-03-06T20:21:12.283Z,100002.03
2023-03-06T20:23:38.775Z,99997.09
2023-03-06T20:26:12.053Z,99992.59
2023-03-06T20:28:39.614Z,99983.53
2023-03-06T20:31:08.520Z,99980.91
2023-03-06T20:33:35.414Z,99968.09
2023-03-06T20:36:02.045Z,99965.41
2023-03-06T20:38:28.671Z,99965.00
2023-03-06T20:40:56.087Z,99966.47
2023-03-06T20:43:23.553Z,99964.59
2023-03-06T20:46:03.486Z,99949.56
2023-03-06T20:48:30.045Z,99945.78
2023-03-06T20:51:04.612Z,99944.97
2023-03-06T20:53:31.507Z,99941.94
2023-03-06T20:55:58.212Z,99937.72
2023-03-06T20:58:28.517Z,99927.94
2023-03-06T21:00:55.182Z,99919.63
2023-03-06T21:03:22.016Z,99919.63
2023-03-06T21:05:48.699Z,99921.47
2023-03-06T21:08:16.704Z,99920.63
2023-03-06T21:10:45.543Z,99919.81
2023-03-06T21:13:12.393Z,99920.16
2023-03-06T21:15:40.623Z,99914.50
2023-03-06T21:18:07.323Z,99907.34
2023-03-06T21:20:34.723Z,99904.28
2023-03-06T21:23:04.002Z,99897.47
2023-03-06T21:25:30.673Z,99900.44
2023-03-06T21:27:58.776Z,99896.25
2023-03-06T21:30:25.281Z,99886.06
2023-03-06T21:32:52.418Z,99891.31
2023-03-06T21:35:19.401Z,99899.13
2023-03-06T21:37:46.997Z,99877.69
2023-03-06T21:40:16.815Z,99880.63
2023-03-06T21:42:43.420Z,99883.59
2023-03-06T21:45:10.288Z,99881.28
2023-03-06T21:47:38.779Z,99891.41
2023-03-06T21:50:07.084Z,99877.81
2023-03-06T21:52:33.624Z,99870.25
2023-03-06T21:55:00.292Z,99873.22
2023-03-06T21:57:27.080Z,99891.13
2023-03-06T21:59:53.613Z,99884.72
2023-03-06T22:02:21.355Z,99880.19
2023-03-06T22:04:52.496Z,99886.53
2023-03-06T22:07:20.248Z,99888.75
2023-03-06T22:09:47.351Z,99874.03
2023-03-06T22:12:13.858Z,99876.25
2023-03-06T22:14:41.387Z,99877.31
2023-03-06T22:17:07.887Z,99866.47
2023-03-06T22:19:34.424Z,99857.41
2023-03-06T22:22:01.065Z,99863.09
2023-03-06T22:24:27.694Z,99859.72
2023-03-06T22:26:54.103Z,99864.97
2023-03-06T22:29:20.606Z,99852.13
2023-03-06T22:31:47.043Z,99861.09
2023-03-06T22:34:13.674Z,99855.44
2023-03-06T22:36:40.165Z,99863.75
2023-03-06T22:39:06.697Z,99857.72
2023-03-06T22:41:33.333Z,99851.00
2023-03-06T22:44:02.230Z,99849.50
2023-03-06T22:46:29.525Z,99842.75
2023-03-06T22:49:00.474Z,99851.06
2023-03-06T22:51:28.674Z,99848.84
2023-03-06T22:53:55.569Z,99854.53
2023-03-06T22:56:22.882Z,99845.16
2023-03-06T22:58:49.704Z,99847.03
2023-03-06T23:01:21.741Z,99841.03
2023-03-06T23:03:53.673Z,99844.75
2023-03-06T23:06:35.119Z,99848.13
2023-03-06T23:09:06.031Z,99841.38
2023-03-06T23:11:51.665Z,99838.00
2023-03-06T23:14:37.016Z,99836.50
2023-03-06T23:17:21.925Z,99841.13
2023-03-06T23:20:10.024Z,99847.53
2023-03-06T23:22:55.082Z,99836.28
2023-03-06T23:25:40.454Z,99836.28
2023-03-06T23:28:07.536Z,99832.16
2023-03-06T23:30:33.975Z,99833.63
2023-03-06T23:33:00.428Z,99831.34
2023-03-06T23:35:26.875Z,99836.19
2023-03-06T23:37:53.415Z,99830.50
2023-03-06T23:40:20.477Z,99834.22
2023-03-06T23:42:46.984Z,99830.00
2023-03-06T23:45:13.481Z,99826.97
2023-03-06T23:47:40.016Z,99820.88
2023-03-06T23:50:06.755Z,99828.69
2023-03-06T23:52:33.462Z,99824.47
2023-03-06T23:54:59.936Z,99830.06
2023-03-06T23:57:26.498Z,99831.56
2023-03-06T23:59:55.133Z,99834.94
